Pagrindinis puslapis
METAR-TAF:

METAR-TAF

Oro uostai :

Mersa Matruhas, Egiptas

platuma: 31-20N, ilguma: 027-13E, Aukštis: 25 m

Dabartinis oras

Ataskaita buvo paskelbta 34 minutes, ne 22:00 UTC
Vėjas 10 kt iš Šiaurės/Šiaurės Rytų
Temperatūra 24°C
Drėgmė 69%
Slėgis 1016 hPa
Matomumas 10 km arba daugiau
Išsisklaidę debesys ne aukštis 2000 ft

METAR: HEMM 242200Z 03010KT 9999 SCT020 24/18 Q1016 NOSIG

Laikas: 00:34 (22:34 UTC)

Prognozė

Ataskaita buvo paskelbta 5 valandos ir 34 minutes, ne 17:00 UTC
Prognozė galioja nuo 24 metu 18 UTC su 25 metu 24 UTC
Vėjas 7 kt iš Šiaurės Rytų
Matomumas 10 km arba daugiau
Mažai debesys ne aukštis 2000 ft
Laikinai
nuo 25 metu 00 UTC su 25 metu 08 UTC
Vėjas 3 kt nuo kintamojo kryptimis

TAF: HEMM 241700Z 2418/2524 05007KT 9999 FEW020 TEMPO 2500/2508 VRB03KT

Orai ataskaitas ir orų prognozės (METAR, TAF).

turimą stotys yra geltonos ir raudonos taškus žemėlapyje.

Perkelti pele per norėdami pamatyti stoties vardą.

Tada spustelėkite, norėdami matyti oro stebėjimo ir prognozės.

Norėdami pakeisti žemėlapį: spustelėkite ant žalios mygtukų su juodo kryžiaus žemyn,; žalią mygtuką su brūkšneliu, jei norite nutolinti; arba žalių rodyklių gretimoms žemėlapius.


METAR-TAF: